sensor_id;sensor_type;location;lat;lon;timestamp;temperature;humidity
68011;DHT22;54794;48.348;7.878;2023-06-10T00:05:42;26.00;35.00
68011;DHT22;54794;48.348;7.878;2023-06-10T00:08:21;25.90;35.00
68011;DHT22;54794;48.348;7.878;2023-06-10T00:19:10;25.70;35.30
68011;DHT22;54794;48.348;7.878;2023-06-10T00:21:57;25.60;35.40
68011;DHT22;54794;48.348;7.878;2023-06-10T00:24:32;25.60;35.20
68011;DHT22;54794;48.348;7.878;2023-06-10T00:27:23;25.50;35.30
68011;DHT22;54794;48.348;7.878;2023-06-10T00:30:17;25.40;35.20
68011;DHT22;54794;48.348;7.878;2023-06-10T00:33:02;25.40;35.70
68011;DHT22;54794;48.348;7.878;2023-06-10T00:35:38;25.30;35.40
68011;DHT22;54794;48.348;7.878;2023-06-10T00:38:31;25.20;35.60
68011;DHT22;54794;48.348;7.878;2023-06-10T00:41:00;25.20;36.00
68011;DHT22;54794;48.348;7.878;2023-06-10T00:44:00;25.10;35.70
68011;DHT22;54794;48.348;7.878;2023-06-10T00:46:44;25.10;36.00
68011;DHT22;54794;48.348;7.878;2023-06-10T00:49:15;25.00;35.80
68011;DHT22;54794;48.348;7.878;2023-06-10T00:51:54;24.90;35.80
68011;DHT22;54794;48.348;7.878;2023-06-10T00:54:30;24.80;35.90
68011;DHT22;54794;48.348;7.878;2023-06-10T00:57:01;24.80;36.00
68011;DHT22;54794;48.348;7.878;2023-06-10T00:59:36;24.80;36.10
68011;DHT22;54794;48.348;7.878;2023-06-10T01:02:08;24.80;36.30
68011;DHT22;54794;48.348;7.878;2023-06-10T01:04:53;24.60;36.50
68011;DHT22;54794;48.348;7.878;2023-06-10T01:07:34;24.60;36.30
68011;DHT22;54794;48.348;7.878;2023-06-10T01:10:29;24.50;36.90
68011;DHT22;54794;48.348;7.878;2023-06-10T01:13:21;24.40;37.00
68011;DHT22;54794;48.348;7.878;2023-06-10T01:16:20;24.30;36.70
68011;DHT22;54794;48.348;7.878;2023-06-10T01:18:51;24.20;37.20
68011;DHT22;54794;48.348;7.878;2023-06-10T01:24:26;24.00;37.40
68011;DHT22;54794;48.348;7.878;2023-06-10T01:27:14;23.90;37.20
68011;DHT22;54794;48.348;7.878;2023-06-10T01:30:12;23.80;37.10
68011;DHT22;54794;48.348;7.878;2023-06-10T01:32:51;23.70;37.60
68011;DHT22;54794;48.348;7.878;2023-06-10T01:35:28;23.70;37.60
68011;DHT22;54794;48.348;7.878;2023-06-10T01:38:03;23.60;37.40
68011;DHT22;54794;48.348;7.878;2023-06-10T01:41:01;23.60;37.80
68011;DHT22;54794;48.348;7.878;2023-06-10T01:43:46;23.50;38.20
68011;DHT22;54794;48.348;7.878;2023-06-10T01:46:27;23.40;37.80
68011;DHT22;54794;48.348;7.878;2023-06-10T01:49:04;23.40;38.20
68011;DHT22;54794;48.348;7.878;2023-06-10T01:52:01;23.30;38.10
68011;DHT22;54794;48.348;7.878;2023-06-10T01:54:34;23.20;37.50
68011;DHT22;54794;48.348;7.878;2023-06-10T01:57:10;23.20;38.10
68011;DHT22;54794;48.348;7.878;2023-06-10T01:59:52;23.20;38.00
68011;DHT22;54794;48.348;7.878;2023-06-10T02:02:28;23.10;38.80
68011;DHT22;54794;48.348;7.878;2023-06-10T02:05:10;23.10;38.20
68011;DHT22;54794;48.348;7.878;2023-06-10T02:07:40;23.10;38.60
68011;DHT22;54794;48.348;7.878;2023-06-10T02:10:28;23.00;38.40
68011;DHT22;54794;48.348;7.878;2023-06-10T02:13:01;23.20;38.90
68011;DHT22;54794;48.348;7.878;2023-06-10T02:15:36;23.00;39.40
68011;DHT22;54794;48.348;7.878;2023-06-10T02:18:14;23.00;38.60
68011;DHT22;54794;48.348;7.878;2023-06-10T02:20:44;23.00;39.00
68011;DHT22;54794;48.348;7.878;2023-06-10T02:23:17;23.00;38.80
68011;DHT22;54794;48.348;7.878;2023-06-10T02:25:49;23.00;38.90
68011;DHT22;54794;48.348;7.878;2023-06-10T02:28:18;23.00;39.10
68011;DHT22;54794;48.348;7.878;2023-06-10T02:30:51;22.90;38.90
68011;DHT22;54794;48.348;7.878;2023-06-10T02:33:30;22.80;39.00
68011;DHT22;54794;48.348;7.878;2023-06-10T02:36:09;22.80;39.10
68011;DHT22;54794;48.348;7.878;2023-06-10T02:38:57;22.70;39.40
68011;DHT22;54794;48.348;7.878;2023-06-10T02:41:48;22.70;39.40
68011;DHT22;54794;48.348;7.878;2023-06-10T02:44:22;22.60;39.30
68011;DHT22;54794;48.348;7.878;2023-06-10T02:46:54;22.60;39.40
68011;DHT22;54794;48.348;7.878;2023-06-10T02:49:47;22.50;39.50
68011;DHT22;54794;48.348;7.878;2023-06-10T02:52:26;22.40;39.50
68011;DHT22;54794;48.348;7.878;2023-06-10T02:54:56;22.30;39.90
68011;DHT22;54794;48.348;7.878;2023-06-10T02:57:40;22.40;39.80
68011;DHT22;54794;48.348;7.878;2023-06-10T03:00:26;22.30;40.00
68011;DHT22;54794;48.348;7.878;2023-06-10T03:02:59;22.20;39.90
68011;DHT22;54794;48.348;7.878;2023-06-10T03:05:41;22.20;40.30
68011;DHT22;54794;48.348;7.878;2023-06-10T03:08:22;22.10;40.20
68011;DHT22;54794;48.348;7.878;2023-06-10T03:10:55;22.00;40.10
68011;DHT22;54794;48.348;7.878;2023-06-10T03:13:23;22.00;40.20
68011;DHT22;54794;48.348;7.878;2023-06-10T03:15:50;22.00;40.50
68011;DHT22;54794;48.348;7.878;2023-06-10T03:18:40;21.90;40.40
68011;DHT22;54794;48.348;7.878;2023-06-10T03:21:19;21.90;40.60
68011;DHT22;54794;48.348;7.878;2023-06-10T03:23:55;21.90;40.70
68011;DHT22;54794;48.348;7.878;2023-06-10T03:26:29;21.80;40.70
68011;DHT22;54794;48.348;7.878;2023-06-10T03:29:05;21.80;40.80
68011;DHT22;54794;48.348;7.878;2023-06-10T03:31:36;21.80;40.80
68011;DHT22;54794;48.348;7.878;2023-06-10T03:34:17;21.70;40.90
68011;DHT22;54794;48.348;7.878;2023-06-10T03:36:46;21.70;40.80
68011;DHT22;54794;48.348;7.878;2023-06-10T03:39:30;21.70;40.80
68011;DHT22;54794;48.348;7.878;2023-06-10T03:42:19;21.60;41.10
68011;DHT22;54794;48.348;7.878;2023-06-10T03:44:51;21.60;41.00
68011;DHT22;54794;48.348;7.878;2023-06-10T03:47:25;21.60;41.20
68011;DHT22;54794;48.348;7.878;2023-06-10T03:50:01;21.50;41.30
68011;DHT22;54794;48.348;7.878;2023-06-10T03:52:53;21.50;41.70
68011;DHT22;54794;48.348;7.878;2023-06-10T03:55:43;21.60;41.70
68011;DHT22;54794;48.348;7.878;2023-06-10T03:58:12;21.60;41.50
68011;DHT22;54794;48.348;7.878;2023-06-10T04:00:50;21.50;41.40
68011;DHT22;54794;48.348;7.878;2023-06-10T04:03:29;21.50;41.50
68011;DHT22;54794;48.348;7.878;2023-06-10T04:06:13;21.50;42.10
68011;DHT22;54794;48.348;7.878;2023-06-10T04:08:45;21.50;41.90
68011;DHT22;54794;48.348;7.878;2023-06-10T04:11:16;21.50;42.00
68011;DHT22;54794;48.348;7.878;2023-06-10T04:13:46;21.40;41.90
68011;DHT22;54794;48.348;7.878;2023-06-10T04:16:22;21.40;42.00
68011;DHT22;54794;48.348;7.878;2023-06-10T04:19:18;21.40;42.60
68011;DHT22;54794;48.348;7.878;2023-06-10T04:21:49;21.40;42.20
68011;DHT22;54794;48.348;7.878;2023-06-10T04:24:23;21.40;42.30
68011;DHT22;54794;48.348;7.878;2023-06-10T04:27:23;21.40;42.40
68011;DHT22;54794;48.348;7.878;2023-06-10T04:30:02;21.40;43.30
68011;DHT22;54794;48.348;7.878;2023-06-10T04:33:33;21.40;42.70
68011;DHT22;54794;48.348;7.878;2023-06-10T04:39:14;21.50;42.60
68011;DHT22;54794;48.348;7.878;2023-06-10T04:42:22;21.50;43.10
68011;DHT22;54794;48.348;7.878;2023-06-10T04:45:08;21.50;43.10
68011;DHT22;54794;48.348;7.878;2023-06-10T04:48:15;21.60;43.10
68011;DHT22;54794;48.348;7.878;2023-06-10T04:50:51;21.60;43.40
68011;DHT22;54794;48.348;7.878;2023-06-10T04:53:42;21.60;43.10
68011;DHT22;54794;48.348;7.878;2023-06-10T04:56:28;21.60;42.90
68011;DHT22;54794;48.348;7.878;2023-06-10T04:59:06;21.70;43.60
68011;DHT22;54794;48.348;7.878;2023-06-10T05:01:39;21.70;43.30
68011;DHT22;54794;48.348;7.878;2023-06-10T05:04:19;21.70;43.70
68011;DHT22;54794;48.348;7.878;2023-06-10T05:07:12;21.80;43.50
68011;DHT22;54794;48.348;7.878;2023-06-10T05:09:42;21.80;44.10
68011;DHT22;54794;48.348;7.878;2023-06-10T05:12:11;21.90;43.70
68011;DHT22;54794;48.348;7.878;2023-06-10T05:15:06;21.90;43.30
68011;DHT22;54794;48.348;7.878;2023-06-10T05:18:30;21.90;43.50
68011;DHT22;54794;48.348;7.878;2023-06-10T05:21:32;22.00;43.70
68011;DHT22;54794;48.348;7.878;2023-06-10T05:24:29;22.00;43.20
68011;DHT22;54794;48.348;7.878;2023-06-10T05:30:29;22.10;44.10
68011;DHT22;54794;48.348;7.878;2023-06-10T05:33:11;22.10;43.50
68011;DHT22;54794;48.348;7.878;2023-06-10T05:36:14;22.20;44.20
68011;DHT22;54794;48.348;7.878;2023-06-10T05:39:11;22.30;44.00
68011;DHT22;54794;48.348;7.878;2023-06-10T05:42:06;22.20;43.60
68011;DHT22;54794;48.348;7.878;2023-06-10T05:48:55;22.40;44.70
68011;DHT22;54794;48.348;7.878;2023-06-10T05:52:04;22.50;44.70
68011;DHT22;54794;48.348;7.878;2023-06-10T05:54:59;22.50;44.70
68011;DHT22;54794;48.348;7.878;2023-06-10T06:02:00;22.70;44.80
68011;DHT22;54794;48.348;7.878;2023-06-10T06:05:04;22.70;44.40
68011;DHT22;54794;48.348;7.878;2023-06-10T06:08:30;22.80;44.30
68011;DHT22;54794;48.348;7.878;2023-06-10T06:15:27;23.00;45.00
68011;DHT22;54794;48.348;7.878;2023-06-10T06:22:58;23.30;44.40
68011;DHT22;54794;48.348;7.878;2023-06-10T06:26:05;23.40;44.70
68011;DHT22;54794;48.348;7.878;2023-06-10T06:28:51;23.50;44.30
68011;DHT22;54794;48.348;7.878;2023-06-10T06:36:25;23.70;44.70
68011;DHT22;54794;48.348;7.878;2023-06-10T06:40:00;23.80;44.90
68011;DHT22;54794;48.348;7.878;2023-06-10T06:42:54;24.00;44.70
68011;DHT22;54794;48.348;7.878;2023-06-10T06:46:14;24.10;44.50
68011;DHT22;54794;48.348;7.878;2023-06-10T06:49:47;24.20;44.80
68011;DHT22;54794;48.348;7.878;2023-06-10T06:53:20;24.40;44.70
68011;DHT22;54794;48.348;7.878;2023-06-10T06:56:23;24.50;44.60
68011;DHT22;54794;48.348;7.878;2023-06-10T06:59:47;24.50;44.30
68011;DHT22;54794;48.348;7.878;2023-06-10T07:03:39;24.60;44.50
68011;DHT22;54794;48.348;7.878;2023-06-10T07:06:23;24.70;44.40
68011;DHT22;54794;48.348;7.878;2023-06-10T07:10:04;24.80;44.30
68011;DHT22;54794;48.348;7.878;2023-06-10T07:16:54;24.90;44.30
68011;DHT22;54794;48.348;7.878;2023-06-10T07:25:09;25.10;44.60
68011;DHT22;54794;48.348;7.878;2023-06-10T07:28:46;25.30;44.60
68011;DHT22;54794;48.348;7.878;2023-06-10T07:32:44;25.40;44.30
68011;DHT22;54794;48.348;7.878;2023-06-10T07:41:00;25.70;44.40
68011;DHT22;54794;48.348;7.878;2023-06-10T07:56:46;26.50;44.40
68011;DHT22;54794;48.348;7.878;2023-06-10T07:59:30;26.30;44.30
68011;DHT22;54794;48.348;7.878;2023-06-10T08:02:40;26.40;44.10
68011;DHT22;54794;48.348;7.878;2023-06-10T08:06:22;26.50;44.30
68011;DHT22;54794;48.348;7.878;2023-06-10T08:18:28;26.80;44.30
68011;DHT22;54794;48.348;7.878;2023-06-10T08:22:56;27.00;44.10
68011;DHT22;54794;48.348;7.878;2023-06-10T08:26:56;27.20;43.70
68011;DHT22;54794;48.348;7.878;2023-06-10T08:33:30;27.40;43.70
68011;DHT22;54794;48.348;7.878;2023-06-10T08:37:15;27.50;43.80
68011;DHT22;54794;48.348;7.878;2023-06-10T08:40:17;27.70;43.80
68011;DHT22;54794;48.348;7.878;2023-06-10T08:42:59;27.80;43.60
68011;DHT22;54794;48.348;7.878;2023-06-10T08:45:44;28.00;43.90
68011;DHT22;54794;48.348;7.878;2023-06-10T08:48:34;28.10;43.40
68011;DHT22;54794;48.348;7.878;2023-06-10T08:51:55;28.20;43.40
68011;DHT22;54794;48.348;7.878;2023-06-10T08:55:40;28.40;43.60
68011;DHT22;54794;48.348;7.878;2023-06-10T09:06:27;28.80;43.00
68011;DHT22;54794;48.348;7.878;2023-06-10T09:10:30;29.00;43.00
68011;DHT22;54794;48.348;7.878;2023-06-10T09:13:56;29.10;43.10
68011;DHT22;54794;48.348;7.878;2023-06-10T09:17:36;29.10;42.70
68011;DHT22;54794;48.348;7.878;2023-06-10T09:21:27;29.40;43.00
68011;DHT22;54794;48.348;7.878;2023-06-10T09:25:01;29.60;42.70
68011;DHT22;54794;48.348;7.878;2023-06-10T09:28:41;29.80;42.70
68011;DHT22;54794;48.348;7.878;2023-06-10T09:36:01;30.10;42.00
68011;DHT22;54794;48.348;7.878;2023-06-10T09:43:39;30.40;41.70
68011;DHT22;54794;48.348;7.878;2023-06-10T09:46:34;30.60;41.70
68011;DHT22;54794;48.348;7.878;2023-06-10T09:49:42;30.70;41.80
68011;DHT22;54794;48.348;7.878;2023-06-10T09:52:30;30.70;41.50
68011;DHT22;54794;48.348;7.878;2023-06-10T09:56:01;30.80;41.40
68011;DHT22;54794;48.348;7.878;2023-06-10T09:58:49;30.90;41.40
68011;DHT22;54794;48.348;7.878;2023-06-10T10:05:21;31.10;41.50
68011;DHT22;54794;48.348;7.878;2023-06-10T10:08:19;31.20;41.20
68011;DHT22;54794;48.348;7.878;2023-06-10T10:15:22;31.40;40.90
68011;DHT22;54794;48.348;7.878;2023-06-10T10:25:37;31.70;40.70
68011;DHT22;54794;48.348;7.878;2023-06-10T10:28:24;31.80;40.50
68011;DHT22;54794;48.348;7.878;2023-06-10T10:31:16;31.90;40.40
68011;DHT22;54794;48.348;7.878;2023-06-10T10:34:16;31.90;39.90
68011;DHT22;54794;48.348;7.878;2023-06-10T10:37:27;32.00;40.30
68011;DHT22;54794;48.348;7.878;2023-06-10T10:40:33;32.10;40.30
68011;DHT22;54794;48.348;7.878;2023-06-10T10:43:18;32.20;40.40
68011;DHT22;54794;48.348;7.878;2023-06-10T10:46:12;32.30;40.30
68011;DHT22;54794;48.348;7.878;2023-06-10T10:48:54;32.30;40.00
68011;DHT22;54794;48.348;7.878;2023-06-10T11:03:45;32.30;39.10
68011;DHT22;54794;48.348;7.878;2023-06-10T11:07:20;32.40;39.50
68011;DHT22;54794;48.348;7.878;2023-06-10T11:14:59;32.70;39.30
68011;DHT22;54794;48.348;7.878;2023-06-10T11:22:29;32.90;39.00
68011;DHT22;54794;48.348;7.878;2023-06-10T11:29:28;33.00;38.70
68011;DHT22;54794;48.348;7.878;2023-06-10T11:33:09;33.10;39.20
68011;DHT22;54794;48.348;7.878;2023-06-10T11:48:12;33.50;37.70
68011;DHT22;54794;48.348;7.878;2023-06-10T11:50:55;33.50;37.50
68011;DHT22;54794;48.348;7.878;2023-06-10T11:53:30;33.50;38.00
68011;DHT22;54794;48.348;7.878;2023-06-10T11:56:32;33.60;37.60
68011;DHT22;54794;48.348;7.878;2023-06-10T11:59:29;33.60;37.30
68011;DHT22;54794;48.348;7.878;2023-06-10T12:03:01;33.60;37.70
68011;DHT22;54794;48.348;7.878;2023-06-10T12:06:13;33.70;37.50
68011;DHT22;54794;48.348;7.878;2023-06-10T12:09:38;33.80;36.90
68011;DHT22;54794;48.348;7.878;2023-06-10T12:13:17;33.90;37.20
68011;DHT22;54794;48.348;7.878;2023-06-10T12:16:53;33.80;36.50
68011;DHT22;54794;48.348;7.878;2023-06-10T12:20:28;33.60;36.40
68011;DHT22;54794;48.348;7.878;2023-06-10T12:23:22;33.70;36.90
68011;DHT22;54794;48.348;7.878;2023-06-10T12:25:54;33.80;37.20
68011;DHT22;54794;48.348;7.878;2023-06-10T12:28:50;33.90;37.10
68011;DHT22;54794;48.348;7.878;2023-06-10T12:32:06;34.10;37.00
68011;DHT22;54794;48.348;7.878;2023-06-10T12:34:46;34.40;36.40
68011;DHT22;54794;48.348;7.878;2023-06-10T12:37:25;34.60;36.50
68011;DHT22;54794;48.348;7.878;2023-06-10T12:40:15;34.70;36.10
68011;DHT22;54794;48.348;7.878;2023-06-10T12:43:02;34.90;36.50
68011;DHT22;54794;48.348;7.878;2023-06-10T12:49:32;35.20;35.80
68011;DHT22;54794;48.348;7.878;2023-06-10T12:52:02;35.20;35.60
68011;DHT22;54794;48.348;7.878;2023-06-10T12:54:50;35.30;35.80
68011;DHT22;54794;48.348;7.878;2023-06-10T12:57:31;35.30;35.40
68011;DHT22;54794;48.348;7.878;2023-06-10T13:00:12;35.30;34.90
68011;DHT22;54794;48.348;7.878;2023-06-10T13:03:25;35.20;34.70
68011;DHT22;54794;48.348;7.878;2023-06-10T13:06:15;35.20;34.90
68011;DHT22;54794;48.348;7.878;2023-06-10T13:09:05;35.00;34.30
68011;DHT22;54794;48.348;7.878;2023-06-10T13:12:14;35.00;35.10
68011;DHT22;54794;48.348;7.878;2023-06-10T13:15:19;35.00;34.70
68011;DHT22;54794;48.348;7.878;2023-06-10T13:21:43;35.30;35.00
68011;DHT22;54794;48.348;7.878;2023-06-10T13:24:27;35.40;35.10
68011;DHT22;54794;48.348;7.878;2023-06-10T13:27:01;35.60;34.70
68011;DHT22;54794;48.348;7.878;2023-06-10T13:29:54;35.70;34.80
68011;DHT22;54794;48.348;7.878;2023-06-10T13:32:30;35.80;34.20
68011;DHT22;54794;48.348;7.878;2023-06-10T13:35:20;35.90;34.20
68011;DHT22;54794;48.348;7.878;2023-06-10T13:38:03;35.90;33.70
68011;DHT22;54794;48.348;7.878;2023-06-10T13:40:39;36.00;34.20
68011;DHT22;54794;48.348;7.878;2023-06-10T13:43:35;36.10;34.00
68011;DHT22;54794;48.348;7.878;2023-06-10T13:50:07;36.30;33.70
68011;DHT22;54794;48.348;7.878;2023-06-10T13:52:49;36.40;33.20
68011;DHT22;54794;48.348;7.878;2023-06-10T13:55:30;36.30;33.30
68011;DHT22;54794;48.348;7.878;2023-06-10T13:58:11;36.30;33.70
68011;DHT22;54794;48.348;7.878;2023-06-10T14:01:20;36.30;33.30
68011;DHT22;54794;48.348;7.878;2023-06-10T14:04:10;36.30;33.40
68011;DHT22;54794;48.348;7.878;2023-06-10T14:06:50;36.20;33.20
68011;DHT22;54794;48.348;7.878;2023-06-10T14:09:25;36.30;33.70
68011;DHT22;54794;48.348;7.878;2023-06-10T14:11:54;36.30;33.50
68011;DHT22;54794;48.348;7.878;2023-06-10T14:14:41;36.40;33.40
68011;DHT22;54794;48.348;7.878;2023-06-10T14:17:21;36.50;33.30
68011;DHT22;54794;48.348;7.878;2023-06-10T14:19:56;36.50;32.80
68011;DHT22;54794;48.348;7.878;2023-06-10T14:25:35;36.30;32.90
68011;DHT22;54794;48.348;7.878;2023-06-10T14:28:38;36.20;32.60
68011;DHT22;54794;48.348;7.878;2023-06-10T14:31:08;36.00;32.60
68011;DHT22;54794;48.348;7.878;2023-06-10T14:33:36;35.90;32.50
68011;DHT22;54794;48.348;7.878;2023-06-10T14:36:06;35.70;32.40
68011;DHT22;54794;48.348;7.878;2023-06-10T14:38:35;35.50;32.30
68011;DHT22;54794;48.348;7.878;2023-06-10T14:41:05;35.40;32.50
68011;DHT22;54794;48.348;7.878;2023-06-10T14:43:35;35.20;32.40
68011;DHT22;54794;48.348;7.878;2023-06-10T14:46:25;35.10;32.60
68011;DHT22;54794;48.348;7.878;2023-06-10T14:48:54;35.00;32.60
68011;DHT22;54794;48.348;7.878;2023-06-10T14:51:21;35.00;32.80
68011;DHT22;54794;48.348;7.878;2023-06-10T14:53:51;35.00;32.90
68011;DHT22;54794;48.348;7.878;2023-06-10T14:56:29;35.10;33.00
68011;DHT22;54794;48.348;7.878;2023-06-10T14:59:04;35.10;32.80
68011;DHT22;54794;48.348;7.878;2023-06-10T15:01:42;35.20;32.60
68011;DHT22;54794;48.348;7.878;2023-06-10T15:04:36;35.30;33.00
68011;DHT22;54794;48.348;7.878;2023-06-10T15:07:19;35.40;32.70
68011;DHT22;54794;48.348;7.878;2023-06-10T15:13:30;35.60;33.00
68011;DHT22;54794;48.348;7.878;2023-06-10T15:16:59;35.80;32.60
68011;DHT22;54794;48.348;7.878;2023-06-10T15:20:56;36.00;32.60
68011;DHT22;54794;48.348;7.878;2023-06-10T15:23:39;36.10;32.50
68011;DHT22;54794;48.348;7.878;2023-06-10T15:26:50;36.30;32.70
68011;DHT22;54794;48.348;7.878;2023-06-10T15:29:29;36.30;32.60
68011;DHT22;54794;48.348;7.878;2023-06-10T15:32:14;36.40;32.40
68011;DHT22;54794;48.348;7.878;2023-06-10T15:35:18;36.40;32.00
68011;DHT22;54794;48.348;7.878;2023-06-10T15:42:30;36.40;31.80
68011;DHT22;54794;48.348;7.878;2023-06-10T15:49:53;36.60;31.50
68011;DHT22;54794;48.348;7.878;2023-06-10T15:58:37;36.20;31.20
68011;DHT22;54794;48.348;7.878;2023-06-10T16:01:57;36.00;31.30
68011;DHT22;54794;48.348;7.878;2023-06-10T16:09:53;35.40;31.10
68011;DHT22;54794;48.348;7.878;2023-06-10T16:13:25;35.30;31.40
68011;DHT22;54794;48.348;7.878;2023-06-10T16:20:23;35.00;31.50
68011;DHT22;54794;48.348;7.878;2023-06-10T16:23:58;34.90;31.80
68011;DHT22;54794;48.348;7.878;2023-06-10T16:26:45;34.80;31.60
68011;DHT22;54794;48.348;7.878;2023-06-10T16:29:52;34.70;31.70
68011;DHT22;54794;48.348;7.878;2023-06-10T16:33:18;34.60;31.80
68011;DHT22;54794;48.348;7.878;2023-06-10T16:47:30;34.40;32.10
68011;DHT22;54794;48.348;7.878;2023-06-10T16:50:45;34.40;32.20
68011;DHT22;54794;48.348;7.878;2023-06-10T16:54:21;34.40;32.50
68011;DHT22;54794;48.348;7.878;2023-06-10T16:57:15;34.30;32.50
68011;DHT22;54794;48.348;7.878;2023-06-10T16:59:42;34.30;32.50
68011;DHT22;54794;48.348;7.878;2023-06-10T17:02:09;34.30;32.40
68011;DHT22;54794;48.348;7.878;2023-06-10T17:04:36;34.30;32.50
68011;DHT22;54794;48.348;7.878;2023-06-10T17:07:03;34.30;32.50
68011;DHT22;54794;48.348;7.878;2023-06-10T17:09:46;34.30;32.40
68011;DHT22;54794;48.348;7.878;2023-06-10T17:15:42;34.20;31.80
68011;DHT22;54794;48.348;7.878;2023-06-10T17:21:23;34.10;32.20
68011;DHT22;54794;48.348;7.878;2023-06-10T17:24:00;34.00;32.50
68011;DHT22;54794;48.348;7.878;2023-06-10T17:26:52;34.00;32.30
68011;DHT22;54794;48.348;7.878;2023-06-10T17:29:41;33.90;32.40
68011;DHT22;54794;48.348;7.878;2023-06-10T17:32:32;33.90;32.40
68011;DHT22;54794;48.348;7.878;2023-06-10T17:35:13;33.80;32.30
68011;DHT22;54794;48.348;7.878;2023-06-10T17:38:05;33.70;32.30
68011;DHT22;54794;48.348;7.878;2023-06-10T17:40:50;33.70;32.40
68011;DHT22;54794;48.348;7.878;2023-06-10T17:43:30;33.70;32.50
68011;DHT22;54794;48.348;7.878;2023-06-10T17:46:11;33.60;32.60
68011;DHT22;54794;48.348;7.878;2023-06-10T17:49:10;33.50;32.60
68011;DHT22;54794;48.348;7.878;2023-06-10T17:52:19;33.40;32.50
68011;DHT22;54794;48.348;7.878;2023-06-10T17:55:30;33.30;32.70
68011;DHT22;54794;48.348;7.878;2023-06-10T17:58:20;33.30;32.90
68011;DHT22;54794;48.348;7.878;2023-06-10T18:01:24;33.20;32.90
68011;DHT22;54794;48.348;7.878;2023-06-10T18:08:19;32.90;32.60
68011;DHT22;54794;48.348;7.878;2023-06-10T18:11:31;32.90;33.10
68011;DHT22;54794;48.348;7.878;2023-06-10T18:14:33;32.70;33.10
68011;DHT22;54794;48.348;7.878;2023-06-10T18:17:12;32.60;33.30
68011;DHT22;54794;48.348;7.878;2023-06-10T18:19:54;32.60;33.40
68011;DHT22;54794;48.348;7.878;2023-06-10T18:23:17;32.50;33.50
68011;DHT22;54794;48.348;7.878;2023-06-10T18:26:43;32.30;33.50
68011;DHT22;54794;48.348;7.878;2023-06-10T18:30:33;32.30;33.80
68011;DHT22;54794;48.348;7.878;2023-06-10T18:34:05;32.20;33.90
68011;DHT22;54794;48.348;7.878;2023-06-10T18:37:07;32.10;33.50
68011;DHT22;54794;48.348;7.878;2023-06-10T18:40:09;32.00;33.50
68011;DHT22;54794;48.348;7.878;2023-06-10T18:51:28;31.80;32.90
68011;DHT22;54794;48.348;7.878;2023-06-10T18:58:38;31.60;32.80
68011;DHT22;54794;48.348;7.878;2023-06-10T19:05:28;31.40;32.90
68011;DHT22;54794;48.348;7.878;2023-06-10T19:08:30;31.30;32.90
68011;DHT22;54794;48.348;7.878;2023-06-10T19:11:51;31.30;33.10
68011;DHT22;54794;48.348;7.878;2023-06-10T19:15:30;31.20;32.90
68011;DHT22;54794;48.348;7.878;2023-06-10T19:22:39;31.00;32.90
68011;DHT22;54794;48.348;7.878;2023-06-10T19:26:15;31.00;32.90
68011;DHT22;54794;48.348;7.878;2023-06-10T19:29:49;31.00;33.10
68011;DHT22;54794;48.348;7.878;2023-06-10T19:33:39;30.90;33.30
68011;DHT22;54794;48.348;7.878;2023-06-10T19:36:20;30.80;33.20
68011;DHT22;54794;48.348;7.878;2023-06-10T19:39:17;30.70;33.40
68011;DHT22;54794;48.348;7.878;2023-06-10T19:41:56;30.70;33.50
68011;DHT22;54794;48.348;7.878;2023-06-10T19:44:24;30.60;33.60
68011;DHT22;54794;48.348;7.878;2023-06-10T19:47:06;30.60;33.50
68011;DHT22;54794;48.348;7.878;2023-06-10T19:53:28;30.60;33.50
68011;DHT22;54794;48.348;7.878;2023-06-10T19:56:10;30.50;33.60
68011;DHT22;54794;48.348;7.878;2023-06-10T20:01:29;30.40;33.90
68011;DHT22;54794;48.348;7.878;2023-06-10T20:04:17;30.40;33.80
68011;DHT22;54794;48.348;7.878;2023-06-10T20:07:22;30.20;33.80
68011;DHT22;54794;48.348;7.878;2023-06-10T20:10:15;30.10;33.90
68011;DHT22;54794;48.348;7.878;2023-06-10T20:13:12;30.10;34.30
68011;DHT22;54794;48.348;7.878;2023-06-10T20:16:27;29.90;34.10
68011;DHT22;54794;48.348;7.878;2023-06-10T20:19:08;29.80;34.50
68011;DHT22;54794;48.348;7.878;2023-06-10T20:22:17;29.80;34.30
68011;DHT22;54794;48.348;7.878;2023-06-10T20:25:48;29.60;34.60
68011;DHT22;54794;48.348;7.878;2023-06-10T20:29:39;29.50;35.20
68011;DHT22;54794;48.348;7.878;2023-06-10T20:32:48;29.30;34.70
68011;DHT22;54794;48.348;7.878;2023-06-10T20:36:06;29.30;34.80
68011;DHT22;54794;48.348;7.878;2023-06-10T20:39:38;29.10;34.80
68011;DHT22;54794;48.348;7.878;2023-06-10T20:42:30;29.00;35.00
68011;DHT22;54794;48.348;7.878;2023-06-10T20:45:19;28.90;35.20
68011;DHT22;54794;48.348;7.878;2023-06-10T20:47:48;28.70;35.20
68011;DHT22;54794;48.348;7.878;2023-06-10T20:50:15;28.70;35.00
68011;DHT22;54794;48.348;7.878;2023-06-10T20:53:08;28.60;35.10
68011;DHT22;54794;48.348;7.878;2023-06-10T20:55:37;28.50;35.60
68011;DHT22;54794;48.348;7.878;2023-06-10T20:58:30;28.40;35.30
68011;DHT22;54794;48.348;7.878;2023-06-10T21:01:40;28.30;35.60
68011;DHT22;54794;48.348;7.878;2023-06-10T21:04:24;28.20;35.80
68011;DHT22;54794;48.348;7.878;2023-06-10T21:07:14;28.10;35.70
68011;DHT22;54794;48.348;7.878;2023-06-10T21:10:00;28.10;35.90
68011;DHT22;54794;48.348;7.878;2023-06-10T21:12:33;27.90;36.10
68011;DHT22;54794;48.348;7.878;2023-06-10T21:15:36;27.90;36.30
68011;DHT22;54794;48.348;7.878;2023-06-10T21:18:30;27.80;35.90
68011;DHT22;54794;48.348;7.878;2023-06-10T21:21:15;27.70;36.40
68011;DHT22;54794;48.348;7.878;2023-06-10T21:27:42;27.60;36.50
68011;DHT22;54794;48.348;7.878;2023-06-10T21:30:35;27.50;35.90
68011;DHT22;54794;48.348;7.878;2023-06-10T21:33:43;27.50;36.20
68011;DHT22;54794;48.348;7.878;2023-06-10T21:36:20;27.40;36.30
68011;DHT22;54794;48.348;7.878;2023-06-10T21:39:03;27.30;36.80
68011;DHT22;54794;48.348;7.878;2023-06-10T21:42:07;27.20;36.50
68011;DHT22;54794;48.348;7.878;2023-06-10T21:44:58;27.20;37.00
68011;DHT22;54794;48.348;7.878;2023-06-10T21:47:45;27.10;37.00
68011;DHT22;54794;48.348;7.878;2023-06-10T21:50:47;27.10;36.80
68011;DHT22;54794;48.348;7.878;2023-06-10T21:53:22;27.00;36.70
68011;DHT22;54794;48.348;7.878;2023-06-10T21:59:40;26.90;37.50
68011;DHT22;54794;48.348;7.878;2023-06-10T22:02:35;26.90;36.80
68011;DHT22;54794;48.348;7.878;2023-06-10T22:05:17;26.80;37.30
68011;DHT22;54794;48.348;7.878;2023-06-10T22:08:11;26.80;37.10
68011;DHT22;54794;48.348;7.878;2023-06-10T22:11:19;26.70;37.20
68011;DHT22;54794;48.348;7.878;2023-06-10T22:14:01;26.70;37.80
68011;DHT22;54794;48.348;7.878;2023-06-10T22:16:55;26.70;37.60
68011;DHT22;54794;48.348;7.878;2023-06-10T22:22:59;26.60;38.10
68011;DHT22;54794;48.348;7.878;2023-06-10T22:25:43;26.50;37.70
68011;DHT22;54794;48.348;7.878;2023-06-10T22:28:29;26.50;37.90